createdAt,value
2022-09-03T00:02:14.135Z,43.13
2022-09-03T00:04:53.173Z,43.20
2022-09-03T00:07:32.278Z,43.84
2022-09-03T00:10:04.458Z,43.89
2022-09-03T00:12:39.460Z,43.96
2022-09-03T00:15:09.882Z,43.86
2022-09-03T00:17:42.218Z,43.95
2022-09-03T00:20:17.272Z,43.84
2022-09-03T00:22:48.706Z,43.86
2022-09-03T00:25:21.278Z,43.49
2022-09-03T00:27:55.179Z,43.57
2022-09-03T00:30:24.248Z,43.70
2022-09-03T00:33:09.420Z,43.70
2022-09-03T00:35:47.500Z,43.58
2022-09-03T00:38:14.503Z,43.53
2022-09-03T00:41:06.778Z,43.46
2022-09-03T00:43:58.372Z,43.86
2022-09-03T00:46:32.274Z,43.96
2022-09-03T00:49:12.667Z,43.52
2022-09-03T00:52:06.924Z,43.72
2022-09-03T00:54:38.162Z,43.87
2022-09-03T00:57:27.995Z,43.54
2022-09-03T01:00:14.196Z,43.50
2022-09-03T01:03:02.424Z,43.73
2022-09-03T01:05:47.466Z,43.71
2022-09-03T01:08:32.184Z,43.63
2022-09-03T01:11:13.556Z,43.55
2022-09-03T01:13:49.824Z,43.47
2022-09-03T01:17:08.870Z,43.84
2022-09-03T01:19:56.742Z,43.61
2022-09-03T01:22:41.467Z,43.44
2022-09-03T01:25:35.091Z,43.70
2022-09-03T01:28:20.527Z,43.62
2022-09-03T01:30:57.550Z,43.42
2022-09-03T01:34:01.358Z,43.63
2022-09-03T01:36:44.273Z,43.66
2022-09-03T01:39:23.723Z,43.42
2022-09-03T01:42:23.614Z,43.67
2022-09-03T01:44:58.238Z,43.74
2022-09-03T01:47:46.000Z,43.81
2022-09-03T01:50:27.531Z,43.65
2022-09-03T01:53:18.881Z,43.55
2022-09-03T01:56:28.767Z,43.48
2022-09-03T01:59:15.530Z,43.68
2022-09-03T02:01:49.329Z,43.46
2022-09-03T02:04:20.035Z,43.77
2022-09-03T02:06:48.766Z,43.37
2022-09-03T02:09:18.904Z,43.28
2022-09-03T02:11:52.911Z,43.76
2022-09-03T02:14:19.937Z,43.25
2022-09-03T02:16:46.402Z,43.35
2022-09-03T02:19:15.782Z,43.32
2022-09-03T02:21:51.698Z,43.69
2022-09-03T02:24:18.412Z,43.55
2022-09-03T02:26:45.321Z,43.52
2022-09-03T02:29:13.275Z,43.67
2022-09-03T02:31:39.685Z,43.36
2022-09-03T02:34:06.176Z,43.54
2022-09-03T02:36:36.279Z,43.17
2022-09-03T02:39:03.005Z,43.60
2022-09-03T02:41:29.345Z,43.51
2022-09-03T02:44:25.816Z,43.25
2022-09-03T02:46:57.684Z,43.24
2022-09-03T02:49:24.169Z,43.23
2022-09-03T02:51:50.568Z,43.20
2022-09-03T02:54:20.925Z,43.56
2022-09-03T02:56:49.576Z,43.37
2022-09-03T02:59:17.806Z,43.36
2022-09-03T03:01:44.223Z,43.59
2022-09-03T03:04:13.314Z,43.34
2022-09-03T03:06:39.671Z,43.31
2022-09-03T03:09:06.989Z,43.32
2022-09-03T03:11:35.308Z,43.20
2022-09-03T03:14:01.705Z,43.42
2022-09-03T03:16:28.371Z,43.10
2022-09-03T03:18:56.935Z,43.15
2022-09-03T03:21:23.316Z,43.44
2022-09-03T03:23:49.823Z,43.11
2022-09-03T03:26:18.541Z,43.54
2022-09-03T03:28:48.450Z,43.04
2022-09-03T03:31:17.961Z,43.17
2022-09-03T03:33:44.554Z,43.22
2022-09-03T03:36:15.552Z,43.39
2022-09-03T03:38:43.763Z,43.01
2022-09-03T03:41:15.723Z,43.20
2022-09-03T03:43:42.382Z,43.41
2022-09-03T03:46:08.903Z,43.25
2022-09-03T03:48:35.513Z,43.34
2022-09-03T03:51:04.218Z,43.04
2022-09-03T03:53:31.336Z,43.16
2022-09-03T03:55:59.931Z,43.28
2022-09-03T03:58:26.788Z,43.14
2022-09-03T04:00:53.189Z,43.05
2022-09-03T04:03:19.562Z,43.22
2022-09-03T04:05:56.701Z,43.17
2022-09-03T04:08:23.845Z,43.24
2022-09-03T04:10:50.391Z,43.31
2022-09-03T04:13:17.188Z,43.30
2022-09-03T04:15:44.185Z,43.02
2022-09-03T04:18:10.958Z,43.43
2022-09-03T04:20:38.386Z,43.21
2022-09-03T04:23:05.979Z,43.39
2022-09-03T04:25:32.606Z,43.21
2022-09-03T04:27:59.006Z,43.33
2022-09-03T04:30:25.819Z,43.17
2022-09-03T04:32:56.058Z,43.36
2022-09-03T04:35:30.001Z,43.11
2022-09-03T04:37:57.843Z,43.40
2022-09-03T04:40:24.179Z,43.06
2022-09-03T04:42:51.384Z,43.16
2022-09-03T04:45:18.785Z,43.29
2022-09-03T04:47:56.430Z,43.28
2022-09-03T04:50:23.537Z,42.98
2022-09-03T04:52:49.917Z,42.86
2022-09-03T04:55:16.965Z,43.25
2022-09-03T04:57:44.268Z,43.20
2022-09-03T05:00:12.023Z,43.25
2022-09-03T05:02:38.437Z,43.31
2022-09-03T05:05:05.690Z,43.12
2022-09-03T05:07:38.500Z,42.94
2022-09-03T05:10:10.325Z,42.98
2022-09-03T05:12:36.712Z,42.90
2022-09-03T05:15:05.303Z,43.16
2022-09-03T05:17:34.992Z,43.12
2022-09-03T05:20:04.063Z,43.25
2022-09-03T05:22:30.385Z,42.98
2022-09-03T05:24:56.751Z,42.87
2022-09-03T05:27:23.634Z,43.08
2022-09-03T05:29:49.994Z,42.91
2022-09-03T05:32:17.250Z,43.21
2022-09-03T05:34:44.015Z,43.18
2022-09-03T05:37:11.625Z,43.27
2022-09-03T05:39:38.426Z,43.21
2022-09-03T05:42:04.919Z,43.11
2022-09-03T05:44:32.513Z,42.83
2022-09-03T05:46:59.706Z,42.96
2022-09-03T05:49:26.061Z,42.97
2022-09-03T05:51:52.449Z,42.83
2022-09-03T05:54:18.867Z,42.80
2022-09-03T05:56:45.333Z,42.99
2022-09-03T05:59:13.604Z,43.32
2022-09-03T06:01:47.799Z,43.27
2022-09-03T06:04:18.354Z,43.21
2022-09-03T06:06:46.419Z,42.93
2022-09-03T06:09:14.731Z,43.02
2022-09-03T06:11:42.756Z,43.31
2022-09-03T06:14:11.752Z,43.27
2022-09-03T06:16:41.007Z,43.12
2022-09-03T06:19:10.714Z,42.98
2022-09-03T06:21:42.548Z,43.19
2022-09-03T06:24:28.062Z,43.40
2022-09-03T06:26:57.840Z,43.30
2022-09-03T06:29:24.239Z,43.04
2022-09-03T06:31:51.184Z,43.47
2022-09-03T06:34:18.744Z,43.11
2022-09-03T06:36:45.826Z,43.05
2022-09-03T06:39:12.308Z,43.51
2022-09-03T06:41:39.917Z,43.24
2022-09-03T06:44:11.459Z,43.15
2022-09-03T06:46:39.158Z,43.39
2022-09-03T06:49:05.701Z,43.37
2022-09-03T06:51:33.282Z,43.50
2022-09-03T06:54:07.543Z,43.30
2022-09-03T06:56:39.911Z,43.47
2022-09-03T06:59:14.905Z,43.23
2022-09-03T07:01:45.101Z,43.24
2022-09-03T07:04:14.596Z,43.58
2022-09-03T07:06:42.505Z,43.33
2022-09-03T07:09:11.016Z,43.75
2022-09-03T07:11:40.338Z,43.33
2022-09-03T07:14:06.710Z,43.36
2022-09-03T07:16:37.728Z,43.42
2022-09-03T07:19:09.059Z,43.79
2022-09-03T07:21:37.185Z,43.47
2022-09-03T07:24:05.455Z,43.41
2022-09-03T07:26:35.387Z,43.92
2022-09-03T07:29:02.332Z,43.56
2022-09-03T07:31:34.529Z,44.06
2022-09-03T07:34:10.011Z,44.00
2022-09-03T07:36:42.720Z,43.73
2022-09-03T07:39:11.475Z,43.67
2022-09-03T07:41:38.618Z,43.79
2022-09-03T07:44:05.805Z,43.83
2022-09-03T07:46:36.591Z,44.17
2022-09-03T07:49:04.296Z,44.18
2022-09-03T07:51:33.427Z,44.27
2022-09-03T07:54:05.858Z,43.99
2022-09-03T07:56:33.358Z,44.37
2022-09-03T07:58:59.865Z,44.14
2022-09-03T08:01:28.561Z,44.37
2022-09-03T08:03:55.757Z,44.65
2022-09-03T08:06:24.388Z,45.44
2022-09-03T08:09:05.245Z,45.06
2022-09-03T08:11:34.967Z,45.56
2022-09-03T08:14:06.198Z,45.16
2022-09-03T08:16:35.830Z,44.94
2022-09-03T08:19:02.319Z,44.99
2022-09-03T08:21:28.971Z,44.44
2022-09-03T08:24:03.615Z,44.72
2022-09-03T08:26:32.203Z,44.56
2022-09-03T08:28:59.530Z,44.45
2022-09-03T08:31:28.029Z,44.31
2022-09-03T08:33:56.663Z,44.50
2022-09-03T08:36:29.903Z,44.67
2022-09-03T08:38:57.790Z,44.53
2022-09-03T08:41:50.605Z,44.42
2022-09-03T08:44:37.830Z,44.88
2022-09-03T08:47:23.382Z,44.63
2022-09-03T08:50:09.085Z,44.69
2022-09-03T08:52:48.898Z,44.83
2022-09-03T08:55:22.104Z,44.94
2022-09-03T08:57:51.292Z,44.78
2022-09-03T09:00:18.813Z,44.88
2022-09-03T09:03:09.896Z,44.96
2022-09-03T09:05:45.084Z,44.65
2022-09-03T09:08:26.866Z,44.56
2022-09-03T09:11:19.483Z,44.73
2022-09-03T09:14:06.378Z,44.48
2022-09-03T09:16:54.451Z,44.84
2022-09-03T09:19:42.205Z,44.45
2022-09-03T09:22:12.868Z,44.58
2022-09-03T09:24:46.335Z,44.49
2022-09-03T09:27:17.161Z,44.81
2022-09-03T09:29:47.967Z,44.39
2022-09-03T09:32:17.601Z,44.56
2022-09-03T09:34:48.664Z,44.57
2022-09-03T09:37:18.951Z,44.75
2022-09-03T09:40:00.253Z,44.61
2022-09-03T09:42:27.631Z,44.72
2022-09-03T09:44:54.124Z,44.46
2022-09-03T09:47:31.556Z,44.72
2022-09-03T09:49:59.920Z,44.48
2022-09-03T09:52:29.292Z,44.45
2022-09-03T09:55:17.599Z,44.48
2022-09-03T09:57:44.207Z,44.48
2022-09-03T10:00:18.140Z,44.85
2022-09-03T10:02:54.213Z,44.79
2022-09-03T10:05:24.455Z,44.55
2022-09-03T10:08:01.622Z,44.69
2022-09-03T10:10:32.829Z,44.65
2022-09-03T10:13:19.323Z,44.78
2022-09-03T10:16:03.185Z,44.41
2022-09-03T10:18:53.699Z,44.80
2022-09-03T10:21:41.527Z,44.59
2022-09-03T10:24:18.299Z,44.68
2022-09-03T10:26:45.989Z,44.59
2022-09-03T10:29:23.062Z,44.71
2022-09-03T10:31:54.073Z,44.94
2022-09-03T10:34:38.603Z,44.51
2022-09-03T10:37:27.240Z,44.82
2022-09-03T10:40:12.977Z,45.00
2022-09-03T10:43:05.272Z,44.75
2022-09-03T10:45:47.471Z,44.66
2022-09-03T10:48:32.358Z,44.53
2022-09-03T10:51:13.659Z,44.85
2022-09-03T10:54:01.138Z,44.94
2022-09-03T10:56:33.889Z,44.85
2022-09-03T10:59:00.261Z,45.04
2022-09-03T11:02:00.058Z,44.72
2022-09-03T11:04:46.190Z,44.79
2022-09-03T11:07:15.262Z,45.01
2022-09-03T11:09:44.192Z,44.83
2022-09-03T11:12:25.291Z,44.85
2022-09-03T11:15:01.575Z,44.97
2022-09-03T11:17:39.934Z,44.78
2022-09-03T11:20:21.834Z,45.14
2022-09-03T11:22:51.662Z,45.13
2022-09-03T11:25:23.773Z,44.77
2022-09-03T11:28:09.879Z,45.05
2022-09-03T11:30:49.634Z,44.87
2022-09-03T11:33:22.091Z,44.94
2022-09-03T11:35:56.423Z,45.24
2022-09-03T11:38:28.865Z,45.28
2022-09-03T11:41:02.324Z,44.94
2022-09-03T11:43:31.675Z,45.25
2022-09-03T11:46:06.363Z,45.16
2022-09-03T11:48:40.379Z,45.08
2022-09-03T11:51:23.293Z,45.10
2022-09-03T11:54:03.708Z,45.27
2022-09-03T11:56:31.971Z,44.98
2022-09-03T11:59:16.149Z,44.96
2022-09-03T12:01:52.362Z,45.25
2022-09-03T12:04:25.265Z,45.21
2022-09-03T12:07:20.194Z,45.40
2022-09-03T12:10:26.264Z,45.39
2022-09-03T12:13:02.203Z,45.29
2022-09-03T12:15:37.726Z,45.17
2022-09-03T12:18:20.626Z,45.17
2022-09-03T12:21:00.193Z,45.44
2022-09-03T12:23:29.955Z,45.14
2022-09-03T12:26:00.150Z,45.14
2022-09-03T12:28:29.402Z,45.41
2022-09-03T12:31:06.621Z,45.23
2022-09-03T12:33:34.200Z,45.10
2022-09-03T12:36:01.984Z,45.44
2022-09-03T12:38:44.555Z,45.53
2022-09-03T12:41:28.459Z,45.28
2022-09-03T12:44:00.559Z,45.63
2022-09-03T12:46:34.176Z,45.54
2022-09-03T12:51:55.816Z,45.20
2022-09-03T12:54:23.570Z,45.54
2022-09-03T12:56:59.606Z,45.58
2022-09-03T12:59:31.742Z,45.70
2022-09-03T13:02:13.915Z,45.72
2022-09-03T13:04:41.431Z,45.71
2022-09-03T13:07:23.396Z,45.52
2022-09-03T13:09:49.991Z,45.62
2022-09-03T13:12:44.417Z,45.54
2022-09-03T13:15:21.307Z,45.45
2022-09-03T13:18:08.682Z,45.78
2022-09-03T13:21:00.340Z,45.60
2022-09-03T13:23:35.612Z,45.63
2022-09-03T13:26:39.620Z,45.76
2022-09-03T13:29:27.599Z,45.87
2022-09-03T13:32:06.192Z,45.56
2022-09-03T13:34:37.536Z,45.62
2022-09-03T13:37:28.587Z,45.62
2022-09-03T13:40:00.025Z,45.74
2022-09-03T13:42:56.481Z,45.98
2022-09-03T13:45:39.424Z,45.59
2022-09-03T13:48:34.872Z,45.67
2022-09-03T13:51:11.632Z,46.05
2022-09-03T13:54:48.276Z,45.73
2022-09-03T13:57:37.549Z,45.89
2022-09-03T14:00:09.356Z,46.02
2022-09-03T14:03:16.076Z,45.80
2022-09-03T14:06:19.786Z,45.81
2022-09-03T14:09:13.985Z,46.03
2022-09-03T14:12:10.056Z,45.76
2022-09-03T14:14:59.374Z,46.16
2022-09-03T14:17:55.383Z,45.95
2022-09-03T14:20:29.435Z,45.95
2022-09-03T14:23:17.037Z,46.07
2022-09-03T14:25:53.367Z,46.21
2022-09-03T14:28:31.131Z,45.94
2022-09-03T14:31:10.863Z,46.24
2022-09-03T14:33:37.136Z,45.77
2022-09-03T14:36:26.259Z,46.06
2022-09-03T14:39:18.248Z,45.92
2022-09-03T14:42:17.959Z,46.24
2022-09-03T14:45:05.171Z,45.91
2022-09-03T14:48:13.028Z,46.17
2022-09-03T14:50:57.798Z,46.09
2022-09-03T14:53:37.710Z,46.13
2022-09-03T14:56:30.356Z,46.31
2022-09-03T14:59:23.207Z,46.00
2022-09-03T15:02:10.402Z,46.26
2022-09-03T15:04:48.883Z,46.23
2022-09-03T15:07:41.835Z,46.38
2022-09-03T15:10:36.610Z,46.29
2022-09-03T15:13:19.439Z,46.25
2022-09-03T15:15:59.541Z,46.43
2022-09-03T15:18:32.351Z,46.00
2022-09-03T15:21:16.919Z,46.06
2022-09-03T15:24:15.562Z,46.39
2022-09-03T15:27:02.883Z,46.17
2022-09-03T15:29:38.083Z,46.18
2022-09-03T15:32:04.993Z,46.10
2022-09-03T15:34:38.902Z,46.34
2022-09-03T15:37:13.560Z,46.32
2022-09-03T15:39:44.316Z,46.36
2022-09-03T15:42:28.536Z,46.25
2022-09-03T15:45:02.161Z,46.18
2022-09-03T15:47:35.226Z,46.20
2022-09-03T15:50:41.160Z,46.48
2022-09-03T15:53:19.122Z,46.49
2022-09-03T15:55:48.083Z,46.25
2022-09-03T15:58:34.111Z,46.76
2022-09-03T16:01:06.135Z,46.15
2022-09-03T16:03:47.602Z,46.52
2022-09-03T16:06:37.949Z,46.64
2022-09-03T16:09:33.416Z,46.26
2022-09-03T16:12:34.494Z,46.37
2022-09-03T16:15:11.831Z,46.58
2022-09-03T16:17:43.235Z,46.32
2022-09-03T16:20:31.283Z,46.48
2022-09-03T16:23:07.963Z,46.23
2022-09-03T16:26:00.583Z,46.26
2022-09-03T16:28:41.783Z,46.22
2022-09-03T16:31:24.437Z,46.32
2022-09-03T16:34:06.966Z,46.64
2022-09-03T16:36:54.990Z,46.31
2022-09-03T16:39:26.957Z,46.36
2022-09-03T16:42:03.830Z,46.75
2022-09-03T16:45:07.163Z,46.32
2022-09-03T16:47:45.378Z,46.63
2022-09-03T16:50:48.330Z,46.55
2022-09-03T16:54:03.702Z,46.66
2022-09-03T16:56:56.782Z,46.32
2022-09-03T16:59:35.261Z,46.46
2022-09-03T17:02:39.541Z,46.79
2022-09-03T17:05:32.463Z,46.38
2022-09-03T17:08:19.863Z,46.57
2022-09-03T17:10:51.868Z,46.40
2022-09-03T17:13:21.222Z,46.68
2022-09-03T17:16:23.618Z,46.62
2022-09-03T17:19:26.263Z,46.59
2022-09-03T17:22:04.626Z,46.77
2022-09-03T17:24:42.155Z,46.86
2022-09-03T17:27:31.050Z,46.60
2022-09-03T17:30:40.554Z,46.64
2022-09-03T17:33:37.535Z,46.62
2022-09-03T17:36:26.059Z,46.62
2022-09-03T17:39:11.608Z,46.73
2022-09-03T17:41:55.032Z,46.92
2022-09-03T17:44:30.775Z,46.78
2022-09-03T17:47:03.021Z,46.99
2022-09-03T17:49:34.736Z,46.83
2022-09-03T17:52:07.186Z,46.85
2022-09-03T17:54:40.388Z,47.12
2022-09-03T17:57:30.859Z,46.94
2022-09-03T18:00:22.620Z,46.95
2022-09-03T18:02:58.956Z,46.78
2022-09-03T18:05:33.955Z,46.78
2022-09-03T18:08:20.583Z,46.69
2022-09-03T18:11:08.599Z,46.77
2022-09-03T18:13:45.742Z,46.92
2022-09-03T18:16:21.727Z,46.96
2022-09-03T18:18:52.395Z,46.94
2022-09-03T18:21:44.431Z,46.80
2022-09-03T18:24:29.288Z,46.58
2022-09-03T18:27:18.531Z,46.87
2022-09-03T18:30:19.958Z,47.13
2022-09-03T18:33:07.444Z,47.00
2022-09-03T18:35:52.636Z,46.96
2022-09-03T18:38:43.883Z,46.91
2022-09-03T18:41:59.236Z,47.10
2022-09-03T18:45:21.012Z,46.99
2022-09-03T18:48:31.349Z,47.12
2022-09-03T18:51:56.461Z,47.18
2022-09-03T18:55:08.759Z,47.00
2022-09-03T18:58:16.888Z,47.12
2022-09-03T19:01:22.901Z,46.92
2022-09-03T19:04:26.345Z,47.13
2022-09-03T19:07:27.431Z,47.14
2022-09-03T19:10:30.435Z,47.02
2022-09-03T19:13:25.540Z,46.94
2022-09-03T19:16:25.749Z,46.82
2022-09-03T19:19:39.164Z,46.95
2022-09-03T19:22:29.303Z,47.18
2022-09-03T19:25:30.108Z,46.98
2022-09-03T19:28:21.302Z,46.87
2022-09-03T19:31:34.509Z,47.00
2022-09-03T19:34:35.213Z,47.46
2022-09-03T19:37:35.124Z,47.31
2022-09-03T19:40:59.079Z,47.20
2022-09-03T19:44:11.000Z,47.21
2022-09-03T19:47:01.178Z,47.43
2022-09-03T19:50:18.577Z,47.15
2022-09-03T19:53:20.940Z,47.32
2022-09-03T19:56:11.996Z,47.24
2022-09-03T19:59:02.388Z,47.54
2022-09-03T20:01:54.425Z,47.45
2022-09-03T20:04:47.663Z,47.43
2022-09-03T20:07:32.467Z,47.30
2022-09-03T20:10:20.715Z,47.26
2022-09-03T20:13:09.920Z,47.58
2022-09-03T20:15:44.903Z,47.20
2022-09-03T20:18:34.426Z,47.44
2022-09-03T20:21:18.806Z,47.48
2022-09-03T20:24:11.238Z,47.50
2022-09-03T20:26:45.532Z,47.57
2022-09-03T20:29:29.424Z,47.55
2022-09-03T20:32:08.632Z,47.42
2022-09-03T20:35:12.712Z,47.66
2022-09-03T20:37:44.959Z,47.92
2022-09-03T20:40:28.646Z,47.82
2022-09-03T20:43:01.396Z,47.48
2022-09-03T20:45:57.696Z,47.93
2022-09-03T20:48:47.007Z,47.66
2022-09-03T20:51:17.479Z,47.74
2022-09-03T20:53:50.988Z,47.67
2022-09-03T20:56:22.741Z,47.68
2022-09-03T20:58:54.890Z,47.63
2022-09-03T21:01:34.022Z,47.82
2022-09-03T21:04:20.663Z,48.03
2022-09-03T21:07:03.251Z,48.03
2022-09-03T21:09:55.832Z,47.77
2022-09-03T21:12:57.136Z,48.03
2022-09-03T21:15:39.407Z,47.96
2022-09-03T21:18:32.480Z,47.95
2022-09-03T21:21:18.180Z,47.80
2022-09-03T21:23:49.664Z,48.09
2022-09-03T21:26:32.617Z,47.85
2022-09-03T21:29:21.335Z,48.25
2022-09-03T21:31:52.446Z,47.94
2022-09-03T21:34:25.186Z,48.35
2022-09-03T21:36:51.679Z,48.05
2022-09-03T21:39:28.215Z,48.09
2022-09-03T21:42:09.735Z,48.00
2022-09-03T21:44:39.170Z,48.38
2022-09-03T21:47:10.472Z,48.04
2022-09-03T21:50:05.101Z,48.17
2022-09-03T21:52:42.272Z,48.41
2022-09-03T21:55:22.647Z,48.15
2022-09-03T21:58:04.411Z,48.13
2022-09-03T22:00:32.677Z,48.18
2022-09-03T22:03:00.331Z,48.24
2022-09-03T22:05:43.616Z,48.25
2022-09-03T22:08:27.963Z,48.21
2022-09-03T22:11:15.319Z,48.23
2022-09-03T22:13:46.852Z,48.11
2022-09-03T22:16:29.060Z,48.15
2022-09-03T22:18:58.592Z,48.23
2022-09-03T22:21:53.296Z,48.09
2022-09-03T22:24:37.032Z,48.08
2022-09-03T22:27:46.633Z,48.30
2022-09-03T22:30:21.617Z,48.13
2022-09-03T22:33:00.462Z,48.27
2022-09-03T22:35:35.947Z,48.33
2022-09-03T22:38:25.246Z,48.00
2022-09-03T22:40:56.543Z,48.10
2022-09-03T22:43:28.641Z,48.03
2022-09-03T22:46:09.832Z,48.00
2022-09-03T22:48:53.259Z,48.27
2022-09-03T22:51:21.946Z,48.28
2022-09-03T22:54:10.014Z,48.09
2022-09-03T22:56:40.654Z,48.15
2022-09-03T22:59:15.794Z,48.12
2022-09-03T23:01:45.073Z,48.33
2022-09-03T23:04:28.260Z,47.89
2022-09-03T23:07:18.681Z,48.06
2022-09-03T23:10:14.445Z,47.93
2022-09-03T23:13:03.399Z,47.89
2022-09-03T23:15:32.465Z,48.23
2022-09-03T23:18:19.762Z,48.27
2022-09-03T23:21:11.159Z,48.00
2022-09-03T23:23:42.978Z,47.84
2022-09-03T23:26:26.950Z,48.00
2022-09-03T23:29:16.419Z,47.97
2022-09-03T23:31:42.980Z,48.07
2022-09-03T23:34:10.816Z,47.97
2022-09-03T23:37:29.284Z,47.97
2022-09-03T23:40:02.507Z,48.24
2022-09-03T23:42:47.443Z,48.46
2022-09-03T23:45:20.169Z,48.23
2022-09-03T23:47:57.639Z,48.08
2022-09-03T23:51:01.559Z,47.99
2022-09-03T23:54:01.151Z,48.20
2022-09-03T23:56:52.253Z,48.23
2022-09-03T23:59:36.635Z,48.28
